PHL weather

Philadelphia International Airport
Philadelphia, Pennsylvania, United States

Public forecast

Using degrees Fahrenheit for public forecast. Weather courtesy of forecast.io.

Current aviation weather report (METAR) for Philadelphia International Airport

Retrieved 2019/10/23 00:16 UTC (44 minutes ago):

KPHL 230016Z 17006KT 3SM -RA BR BKN008 OVC015 18/17 A2981 RMK AO2 P0004 T01780167

Aviation forecast (TAF) for Philadelphia International Airport

Retrieved 2019-10-23 00:40 UTC (20 minutes ago):

TAF KPHL 222333Z 2300/2406 12008KT 5SM SHRA BR OVC008 FM230100 23004KT 5SM BR VCSH BKN015 FM230400 29008KT 6SM BR SCT015 SCT060 FM230600 30007KT P6SM SKC FM231400 29013G20KT P6SM FEW050 FM232200 28008KT P6SM SKC